TimeEST,TemperatureF,Dew PointF,Humidity,Sea Level PressureIn,VisibilityMPH,Wind Direction,Wind SpeedMPH,Gust SpeedMPH,PrecipitationIn,Events,Conditions,WindDirDegrees,DateUTC
12:53 AM,30.9,28.9,92,30.66,6.0,NNE,4.6,-,N/A,,Clear,20,2012-11-18 05:53:00
1:53 AM,30.0,28.9,96,30.65,5.0,NNE,4.6,-,N/A,,Clear,20,2012-11-18 06:53:00
2:53 AM,28.9,28.0,96,30.65,5.0,North,3.5,-,N/A,,Clear,10,2012-11-18 07:53:00
3:53 AM,27.0,26.1,96,30.65,5.0,Calm,Calm,-,N/A,,Clear,0,2012-11-18 08:53:00
4:53 AM,28.0,27.0,96,30.66,5.0,Calm,Calm,-,N/A,,Clear,0,2012-11-18 09:53:00
5:53 AM,28.0,26.1,92,30.68,5.0,NE,3.5,-,N/A,,Clear,40,2012-11-18 10:53:00
6:53 AM,26.1,26.1,100,30.69,4.0,Calm,Calm,-,N/A,,Clear,0,2012-11-18 11:53:00
7:53 AM,32.0,30.0,92,30.68,5.0,NNE,3.5,-,N/A,,Clear,30,2012-11-18 12:53:00
8:53 AM,39.0,34.0,82,30.69,9.0,NE,4.6,-,N/A,,Clear,40,2012-11-18 13:53:00
9:53 AM,45.0,35.1,68,30.69,10.0,NE,8.1,-,N/A,,Clear,40,2012-11-18 14:53:00
10:53 AM,48.0,32.0,54,30.68,10.0,ENE,12.7,20.7,N/A,,Clear,60,2012-11-18 15:53:00
11:53 AM,48.9,33.1,54,30.65,10.0,East,8.1,-,N/A,,Clear,80,2012-11-18 16:53:00
12:53 PM,50.0,30.9,48,30.64,10.0,NE,8.1,-,N/A,,Clear,40,2012-11-18 17:53:00
1:53 PM,50.0,30.9,48,30.63,10.0,NNE,9.2,-,N/A,,Clear,30,2012-11-18 18:53:00
2:53 PM,50.0,30.9,48,30.62,10.0,NE,5.8,-,N/A,,Clear,40,2012-11-18 19:53:00
3:53 PM,46.9,28.9,50,30.63,10.0,ENE,6.9,-,N/A,,Clear,60,2012-11-18 20:53:00
4:53 PM,44.1,28.9,55,30.63,10.0,NE,4.6,-,N/A,,Clear,50,2012-11-18 21:53:00
5:53 PM,42.1,28.9,60,30.64,10.0,NE,3.5,-,N/A,,Clear,50,2012-11-18 22:53:00
6:53 PM,41.0,30.0,65,30.64,10.0,NE,4.6,-,N/A,,Clear,40,2012-11-18 23:53:00
7:53 PM,39.0,30.0,70,30.63,10.0,NE,4.6,-,N/A,,Clear,40,2012-11-19 00:53:00
8:53 PM,37.9,30.0,73,30.63,10.0,NNE,3.5,-,N/A,,Clear,20,2012-11-19 01:53:00
9:53 PM,36.0,30.0,79,30.63,10.0,Calm,Calm,-,N/A,,Clear,0,2012-11-19 02:53:00
10:53 PM,34.0,28.9,82,30.60,10.0,Calm,Calm,-,N/A,,Clear,0,2012-11-19 03:53:00
11:53 PM,35.1,30.9,85,30.60,10.0,NNE,3.5,-,N/A,,Partly Cloudy,30,2012-11-19 04:53:00